createdAt,value
2022-11-29T00:01:42.277Z,95292.13
2022-11-29T00:04:11.122Z,95291.22
2022-11-29T00:06:40.467Z,95245.88
2022-11-29T00:09:12.944Z,95294.13
2022-11-29T00:12:01.786Z,95297.56
2022-11-29T00:14:32.240Z,95298.25
2022-11-29T00:17:02.937Z,95231.66
2022-11-29T00:19:32.408Z,95305.91
2022-11-29T00:22:01.200Z,95263.09
2022-11-29T00:24:31.731Z,95282.00
2022-11-29T00:27:00.773Z,95295.09
2022-11-29T00:29:31.329Z,95243.63
2022-11-29T00:31:59.697Z,95293.22
2022-11-29T00:34:28.114Z,95296.47
2022-11-29T00:36:56.568Z,95221.16
2022-11-29T00:39:25.602Z,95293.34
2022-11-29T00:41:54.204Z,95282.66
2022-11-29T00:44:22.875Z,95284.28
2022-11-29T00:46:52.882Z,95282.19
2022-11-29T00:49:21.256Z,95283.81
2022-11-29T00:51:49.898Z,95288.66
2022-11-29T00:54:18.424Z,95277.50
2022-11-29T00:56:46.777Z,95284.97
2022-11-29T00:59:15.493Z,95275.84
2022-11-29T01:01:43.931Z,95287.53
2022-11-29T01:04:13.819Z,95279.81
2022-11-29T01:06:42.259Z,95285.41
2022-11-29T01:09:10.772Z,95273.97
2022-11-29T01:11:39.269Z,95195.66
2022-11-29T01:14:07.633Z,95292.84
2022-11-29T01:16:36.548Z,95288.31
2022-11-29T01:19:07.382Z,95294.72
2022-11-29T01:21:37.271Z,95290.13
2022-11-29T01:24:06.014Z,95305.03
2022-11-29T01:26:34.643Z,95284.66
2022-11-29T01:29:03.047Z,95270.06
2022-11-29T01:31:36.090Z,95301.00
2022-11-29T01:34:05.803Z,95306.03
2022-11-29T01:36:34.903Z,95302.91
2022-11-29T01:39:06.628Z,95303.38
2022-11-29T01:41:37.489Z,95307.25
2022-11-29T01:44:07.721Z,95300.19
2022-11-29T01:46:38.488Z,95306.03
2022-11-29T01:49:12.336Z,95312.34
2022-11-29T01:51:44.593Z,95310.19
2022-11-29T01:54:16.469Z,95305.91
2022-11-29T01:56:46.209Z,95310.25
2022-11-29T01:59:18.235Z,95309.13
2022-11-29T02:01:46.621Z,95310.75
2022-11-29T02:04:16.460Z,95306.53
2022-11-29T02:06:45.218Z,95305.47
2022-11-29T02:09:22.016Z,95314.59
2022-11-29T02:12:04.499Z,95305.34
2022-11-29T02:14:48.576Z,95306.66
2022-11-29T02:17:26.549Z,95320.00
2022-11-29T02:20:34.563Z,95303.72
2022-11-29T02:23:19.463Z,95295.16
2022-11-29T02:26:02.077Z,95308.56
2022-11-29T02:29:10.236Z,95303.53
2022-11-29T02:32:11.927Z,95309.38
2022-11-29T02:35:11.554Z,95297.06
2022-11-29T02:37:59.101Z,95312.88
2022-11-29T02:40:48.703Z,95302.41
2022-11-29T02:43:38.157Z,95295.97
2022-11-29T02:46:22.483Z,95302.50
2022-11-29T02:49:02.274Z,95274.03
2022-11-29T02:51:48.086Z,95277.19
2022-11-29T02:54:24.863Z,95308.88
2022-11-29T02:56:58.549Z,95277.69
2022-11-29T02:59:35.169Z,95306.09
2022-11-29T03:02:14.736Z,95244.19
2022-11-29T03:04:49.979Z,95301.91
2022-11-29T03:07:29.271Z,95311.56
2022-11-29T03:10:04.101Z,95312.91
2022-11-29T03:12:40.157Z,95314.88
2022-11-29T03:15:20.917Z,95316.97
2022-11-29T03:18:01.623Z,95317.78
2022-11-29T03:20:40.532Z,95320.22
2022-11-29T03:23:20.572Z,95310.19
2022-11-29T03:25:56.385Z,95303.28
2022-11-29T03:28:30.645Z,95323.44
2022-11-29T03:31:08.145Z,95334.13
2022-11-29T03:33:45.896Z,95294.84
2022-11-29T03:36:24.716Z,95288.25
2022-11-29T03:38:58.366Z,95339.47
2022-11-29T03:41:39.265Z,95331.44
2022-11-29T03:44:14.038Z,95337.34
2022-11-29T03:46:51.745Z,95298.66
2022-11-29T03:49:25.140Z,95329.38
2022-11-29T03:52:02.254Z,95330.41
2022-11-29T03:54:44.518Z,95341.59
2022-11-29T03:57:18.956Z,95307.16
2022-11-29T03:59:56.577Z,95334.34
2022-11-29T04:03:07.317Z,95337.84
2022-11-29T04:05:56.191Z,95320.44
2022-11-29T04:08:51.208Z,95342.56
2022-11-29T04:11:55.994Z,95345.25
2022-11-29T04:14:39.538Z,95345.25
2022-11-29T04:17:35.949Z,95351.69
2022-11-29T04:20:45.414Z,95344.66
2022-11-29T04:23:57.503Z,95347.78
2022-11-29T04:27:01.110Z,95344.56
2022-11-29T04:30:01.967Z,95325.81
2022-11-29T04:33:03.328Z,95335.91
2022-11-29T04:35:39.946Z,95266.97
2022-11-29T04:38:45.318Z,95338.88
2022-11-29T04:41:43.904Z,95354.41
2022-11-29T04:44:43.099Z,95358.94
2022-11-29T04:47:42.192Z,95358.41
2022-11-29T04:50:21.921Z,95344.56
2022-11-29T04:53:12.168Z,95323.16
2022-11-29T04:55:48.272Z,95286.50
2022-11-29T04:58:24.445Z,95336.66
2022-11-29T05:01:02.253Z,95367.28
2022-11-29T05:03:39.352Z,95364.94
2022-11-29T05:06:21.495Z,95372.06
2022-11-29T05:08:57.520Z,95371.25
2022-11-29T05:11:40.165Z,95279.59
2022-11-29T05:14:21.275Z,95382.44
2022-11-29T05:16:59.406Z,95376.28
2022-11-29T05:19:48.048Z,95305.94
2022-11-29T05:22:29.944Z,95341.03
2022-11-29T05:25:12.123Z,95380.25
2022-11-29T05:27:46.768Z,95386.69
2022-11-29T05:30:17.123Z,95388.75
2022-11-29T05:32:58.005Z,95390.06
2022-11-29T05:36:01.441Z,95395.00
2022-11-29T05:38:55.721Z,95384.41
2022-11-29T05:41:36.222Z,95397.56
2022-11-29T05:44:11.449Z,95402.16
2022-11-29T05:46:50.978Z,95400.56
2022-11-29T05:49:30.771Z,95401.69
2022-11-29T05:52:16.932Z,95398.47
2022-11-29T05:54:52.512Z,95403.97
2022-11-29T05:57:33.440Z,95414.50
2022-11-29T06:00:04.277Z,95383.91
2022-11-29T06:02:45.380Z,95361.19
2022-11-29T06:05:20.240Z,95413.69
2022-11-29T06:07:57.641Z,95358.66
2022-11-29T06:10:29.970Z,95405.34
2022-11-29T06:13:11.556Z,95414.66
2022-11-29T06:15:59.312Z,95402.16
2022-11-29T06:18:44.937Z,95417.69
2022-11-29T06:21:26.444Z,95418.19
2022-11-29T06:24:12.547Z,95420.63
2022-11-29T06:27:02.517Z,95425.16
2022-11-29T06:29:39.350Z,95420.78
2022-11-29T06:32:15.809Z,95429.28
2022-11-29T06:34:50.714Z,95434.38
2022-11-29T06:37:25.724Z,95434.69
2022-11-29T06:39:56.481Z,95436.88
2022-11-29T06:42:24.934Z,95434.22
2022-11-29T06:44:53.970Z,95447.00
2022-11-29T06:47:29.495Z,95448.63
2022-11-29T06:50:04.013Z,95410.13
2022-11-29T06:52:43.661Z,95441.16
2022-11-29T06:55:20.020Z,95455.56
2022-11-29T06:58:02.629Z,95450.22
2022-11-29T07:00:40.792Z,95412.38
2022-11-29T07:03:33.889Z,95462.94
2022-11-29T07:06:10.180Z,95447.47
2022-11-29T07:08:41.478Z,95426.28
2022-11-29T07:11:14.101Z,95422.31
2022-11-29T07:13:43.512Z,95393.25
2022-11-29T07:16:21.836Z,95454.78
2022-11-29T07:19:03.136Z,95452.75
2022-11-29T07:21:47.308Z,95463.00
2022-11-29T07:24:34.066Z,95448.09
2022-11-29T07:27:09.716Z,95484.22
2022-11-29T07:29:45.637Z,95461.72
2022-11-29T07:32:19.954Z,95469.41
2022-11-29T07:34:57.575Z,95467.94
2022-11-29T07:37:36.018Z,95486.91
2022-11-29T07:40:14.597Z,95486.81
2022-11-29T07:42:53.363Z,95473.00
2022-11-29T07:45:27.165Z,95476.59
2022-11-29T07:47:55.967Z,95476.34
2022-11-29T07:50:24.725Z,95489.75
2022-11-29T07:52:53.256Z,95496.69
2022-11-29T07:55:26.918Z,95501.06
2022-11-29T07:57:55.324Z,95445.53
2022-11-29T08:00:24.911Z,95499.13
2022-11-29T08:02:53.865Z,95500.41
2022-11-29T08:05:24.099Z,95503.34
2022-11-29T08:07:53.710Z,95514.81
2022-11-29T08:10:24.428Z,95504.13
2022-11-29T08:12:53.733Z,95510.88
2022-11-29T08:15:23.621Z,95502.38
2022-11-29T08:17:53.144Z,95506.16
2022-11-29T08:20:21.759Z,95521.47
2022-11-29T08:22:56.439Z,95511.56
2022-11-29T08:25:27.138Z,95511.09
2022-11-29T08:27:56.138Z,95508.66
2022-11-29T08:30:25.798Z,95515.81
2022-11-29T08:32:54.671Z,95512.56
2022-11-29T08:35:24.884Z,95485.03
2022-11-29T08:37:53.267Z,95517.91
2022-11-29T08:40:21.570Z,95520.00
2022-11-29T08:42:51.397Z,95516.28
2022-11-29T08:45:19.847Z,95520.59
2022-11-29T08:47:48.222Z,95514.19
2022-11-29T08:50:18.179Z,95509.41
2022-11-29T08:53:06.070Z,95519.84
2022-11-29T08:55:36.378Z,95517.00
2022-11-29T08:58:07.944Z,95518.59
2022-11-29T09:00:37.100Z,95515.66
2022-11-29T09:03:24.511Z,95531.16
2022-11-29T09:05:53.755Z,95535.94
2022-11-29T09:08:22.406Z,95517.25
2022-11-29T09:10:51.293Z,95514.34
2022-11-29T09:13:21.268Z,95541.84
2022-11-29T09:15:49.735Z,95542.31
2022-11-29T09:18:18.200Z,95541.91
2022-11-29T09:20:46.592Z,95541.19
2022-11-29T09:23:15.057Z,95548.16
2022-11-29T09:25:49.506Z,95547.19
2022-11-29T09:28:17.970Z,95552.06
2022-11-29T09:30:47.862Z,95556.84
2022-11-29T09:33:16.189Z,95552.53
2022-11-29T09:35:44.699Z,95565.66
2022-11-29T09:38:13.812Z,95522.78
2022-11-29T09:40:48.165Z,95565.97
2022-11-29T09:43:25.485Z,95563.88
2022-11-29T09:46:01.470Z,95573.28
2022-11-29T09:49:04.963Z,95567.72
2022-11-29T09:51:44.228Z,95553.59
2022-11-29T09:54:30.354Z,95577.88
2022-11-29T09:56:59.105Z,95553.91
2022-11-29T09:59:30.507Z,95591.91
2022-11-29T10:02:06.684Z,95578.75
2022-11-29T10:04:42.543Z,95556.25
2022-11-29T10:07:21.734Z,95583.38
2022-11-29T10:09:56.032Z,95587.66
2022-11-29T10:12:34.486Z,95583.44
2022-11-29T10:15:09.305Z,95577.59
2022-11-29T10:17:44.971Z,95580.34
2022-11-29T10:20:18.183Z,95582.78
2022-11-29T10:22:53.666Z,95579.84
2022-11-29T10:25:26.334Z,95572.38
2022-11-29T10:27:55.623Z,95569.97
2022-11-29T10:30:24.156Z,95587.44
2022-11-29T10:32:59.303Z,95583.22
2022-11-29T10:35:29.622Z,95585.13
2022-11-29T10:40:56.094Z,95532.63
2022-11-29T10:43:25.801Z,95582.19
2022-11-29T10:45:58.944Z,95583.78
2022-11-29T10:48:32.687Z,95580.88
2022-11-29T10:51:01.699Z,95593.28
2022-11-29T10:53:36.021Z,95569.03
2022-11-29T10:56:09.837Z,95575.47
2022-11-29T10:58:54.058Z,95530.44
2022-11-29T11:01:23.539Z,95581.75
2022-11-29T11:03:55.699Z,95556.91
2022-11-29T11:06:26.633Z,95591.44
2022-11-29T11:08:57.784Z,95583.97
2022-11-29T11:11:32.268Z,95590.47
2022-11-29T11:14:02.459Z,95592.06
2022-11-29T11:16:37.103Z,95595.56
2022-11-29T11:19:31.681Z,95598.00
2022-11-29T11:22:01.431Z,95595.00
2022-11-29T11:24:32.421Z,95602.75
2022-11-29T11:27:02.375Z,95601.97
2022-11-29T11:29:35.882Z,95598.22
2022-11-29T11:32:05.911Z,95573.00
2022-11-29T11:34:37.458Z,95462.00
2022-11-29T11:37:22.546Z,95600.66
2022-11-29T11:39:52.631Z,95609.75
2022-11-29T11:42:39.608Z,95612.97
2022-11-29T11:45:35.159Z,95610.78
2022-11-29T11:48:06.632Z,95609.75
2022-11-29T11:50:42.408Z,95614.06
2022-11-29T11:53:22.400Z,95580.31
2022-11-29T11:55:58.570Z,95616.22
2022-11-29T11:58:28.874Z,95612.47
2022-11-29T12:01:06.404Z,95608.75
2022-11-29T12:03:41.169Z,95617.59
2022-11-29T12:06:30.846Z,95576.06
2022-11-29T12:09:03.757Z,95613.06
2022-11-29T12:11:40.646Z,95609.06
2022-11-29T12:14:15.295Z,95624.63
2022-11-29T12:16:46.645Z,95626.56
2022-11-29T12:19:22.859Z,95602.59
2022-11-29T12:21:57.835Z,95626.63
2022-11-29T12:24:32.284Z,95627.75
2022-11-29T12:27:06.425Z,95608.41
2022-11-29T12:29:36.474Z,95627.75
2022-11-29T12:32:29.016Z,95601.84
2022-11-29T12:35:26.238Z,95631.22
2022-11-29T12:38:07.439Z,95611.47
2022-11-29T12:40:45.109Z,95684.56
2022-11-29T12:43:26.346Z,95615.28
2022-11-29T12:46:01.476Z,95633.16
2022-11-29T12:48:41.550Z,95637.78
2022-11-29T12:51:22.871Z,95636.22
2022-11-29T12:54:10.158Z,95635.41
2022-11-29T12:56:44.790Z,95640.69
2022-11-29T12:59:25.193Z,95638.50
2022-11-29T13:02:17.001Z,95640.56
2022-11-29T13:04:59.389Z,95648.28
2022-11-29T13:07:39.679Z,95642.88
2022-11-29T13:10:36.026Z,95657.88
2022-11-29T13:13:18.467Z,95657.09
2022-11-29T13:15:53.458Z,95646.91
2022-11-29T13:18:27.624Z,95650.91
2022-11-29T13:21:01.011Z,95605.13
2022-11-29T13:24:07.395Z,95614.03
2022-11-29T13:26:29.264Z,95641.03
2022-11-29T13:28:59.429Z,95666.09
2022-11-29T13:31:27.910Z,95645.09
2022-11-29T13:34:02.485Z,95658.06
2022-11-29T13:36:44.047Z,95658.06
2022-11-29T13:39:24.476Z,95657.25
2022-11-29T13:42:05.991Z,95667.97
2022-11-29T13:44:40.963Z,95661.56
2022-11-29T13:47:12.169Z,95663.59
2022-11-29T13:49:58.803Z,95664.41
2022-11-29T13:52:38.256Z,95666.34
2022-11-29T13:55:29.446Z,95677.84
2022-11-29T13:58:16.875Z,95678.59
2022-11-29T14:00:51.704Z,95679.34
2022-11-29T14:03:36.355Z,95588.97
2022-11-29T14:06:11.905Z,95637.72
2022-11-29T14:11:44.087Z,95680.63
2022-11-29T14:14:22.943Z,95672.13
2022-11-29T14:16:53.737Z,95681.47
2022-11-29T14:19:30.122Z,95666.88
2022-11-29T14:22:33.935Z,95681.13
2022-11-29T14:28:33.354Z,95684.06
2022-11-29T14:31:04.154Z,95683.00
2022-11-29T14:33:58.320Z,95651.63
2022-11-29T14:36:42.664Z,95662.34
2022-11-29T14:39:35.003Z,95653.75
2022-11-29T14:42:14.736Z,95690.22
2022-11-29T14:44:53.048Z,95626.25
2022-11-29T14:47:30.064Z,95683.31
2022-11-29T14:50:00.957Z,95678.41
2022-11-29T14:52:34.918Z,95692.97
2022-11-29T14:55:10.188Z,95692.97
2022-11-29T14:57:56.302Z,95702.59
2022-11-29T15:00:27.364Z,95697.53
2022-11-29T15:03:03.524Z,95703.69
2022-11-29T15:05:34.841Z,95700.84
2022-11-29T15:08:10.663Z,95695.66
2022-11-29T15:10:43.075Z,95717.22
2022-11-29T15:13:14.673Z,95691.06
2022-11-29T15:16:09.569Z,95716.75
2022-11-29T15:19:13.461Z,95699.63
2022-11-29T15:21:53.373Z,95719.91
2022-11-29T15:24:26.815Z,95721.38
2022-11-29T15:26:58.045Z,95718.63
2022-11-29T15:29:27.868Z,95729.81
2022-11-29T15:31:58.581Z,95728.19
2022-11-29T15:34:33.586Z,95728.44
2022-11-29T15:37:02.670Z,95731.91
2022-11-29T15:39:34.082Z,95734.59
2022-11-29T15:42:03.777Z,95736.47
2022-11-29T15:44:34.039Z,95738.88
2022-11-29T15:47:18.082Z,95708.66
2022-11-29T15:49:47.641Z,95739.22
2022-11-29T15:52:20.984Z,95722.50
2022-11-29T15:54:54.045Z,95743.28
2022-11-29T15:57:27.726Z,95643.72
2022-11-29T15:59:59.256Z,95735.97
2022-11-29T16:02:31.069Z,95753.22
2022-11-29T16:05:05.636Z,95753.97
2022-11-29T16:07:35.036Z,95725.59
2022-11-29T16:10:06.611Z,95753.63
2022-11-29T16:12:35.032Z,95760.03
2022-11-29T16:15:03.790Z,95755.50
2022-11-29T16:17:35.137Z,95756.88
2022-11-29T16:20:24.498Z,95765.50
2022-11-29T16:23:11.510Z,95760.38
2022-11-29T16:25:56.474Z,95757.94
2022-11-29T16:28:27.807Z,95758.19
2022-11-29T16:30:56.275Z,95768.41
2022-11-29T16:33:26.069Z,95740.50
2022-11-29T16:36:07.572Z,95768.47
2022-11-29T16:38:36.184Z,95782.59
2022-11-29T16:41:08.499Z,95693.81
2022-11-29T16:43:54.128Z,95732.72
2022-11-29T16:46:34.825Z,95778.47
2022-11-29T16:49:24.555Z,95786.50
2022-11-29T16:51:58.894Z,95787.03
2022-11-29T16:54:31.833Z,95787.88
2022-11-29T16:57:00.766Z,95744.53
2022-11-29T16:59:29.569Z,95788.19
2022-11-29T17:01:58.392Z,95789.78
2022-11-29T17:04:26.956Z,95782.84
2022-11-29T17:06:58.174Z,95795.16
2022-11-29T17:09:28.768Z,95785.34
2022-11-29T17:12:00.430Z,95799.94
2022-11-29T17:14:31.634Z,95777.72
2022-11-29T17:17:03.260Z,95793.22
2022-11-29T17:19:32.418Z,95800.41
2022-11-29T17:22:02.439Z,95800.97
2022-11-29T17:24:30.831Z,95800.41
2022-11-29T17:26:59.518Z,95795.06
2022-11-29T17:29:27.855Z,95798.00
2022-11-29T17:31:56.384Z,95805.22
2022-11-29T17:34:25.144Z,95803.09
2022-11-29T17:36:53.729Z,95796.78
2022-11-29T17:39:24.415Z,95773.63
2022-11-29T17:41:54.851Z,95776.22
2022-11-29T17:44:23.567Z,95810.09
2022-11-29T17:46:52.120Z,95797.06
2022-11-29T17:49:20.519Z,95807.41
2022-11-29T17:51:52.139Z,95812.97
2022-11-29T17:54:24.202Z,95815.44
2022-11-29T17:56:53.706Z,95813.78
2022-11-29T17:59:22.599Z,95809.59
2022-11-29T18:01:51.115Z,95776.00
2022-11-29T18:04:20.064Z,95809.97
2022-11-29T18:06:50.561Z,95815.81
2022-11-29T18:09:20.339Z,95810.22
2022-11-29T18:11:51.091Z,95813.72
2022-11-29T18:14:22.431Z,95811.03
2022-11-29T18:16:50.875Z,95813.13
2022-11-29T18:19:21.602Z,95806.41
2022-11-29T18:21:50.875Z,95813.94
2022-11-29T18:24:20.318Z,95808.44
2022-11-29T18:26:50.901Z,95811.75
2022-11-29T18:29:19.455Z,95821.41
2022-11-29T18:31:48.543Z,95797.22
2022-11-29T18:34:17.161Z,95814.75
2022-11-29T18:36:48.465Z,95824.66
2022-11-29T18:39:18.420Z,95769.56
2022-11-29T18:41:50.676Z,95801.13
2022-11-29T18:44:21.731Z,95821.16
2022-11-29T18:46:50.643Z,95829.19
2022-11-29T18:49:19.872Z,95823.59
2022-11-29T18:51:49.719Z,95825.47
2022-11-29T18:54:20.071Z,95834.53
2022-11-29T18:56:51.712Z,95834.53
2022-11-29T18:59:20.143Z,95817.84
2022-11-29T19:01:49.865Z,95836.50
2022-11-29T19:04:20.280Z,95819.47
2022-11-29T19:06:49.310Z,95840.56
2022-11-29T19:09:19.388Z,95841.84
2022-11-29T19:11:48.949Z,95838.56
2022-11-29T19:14:19.079Z,95845.81
2022-11-29T19:16:49.542Z,95848.16
2022-11-29T19:19:19.499Z,95831.63
2022-11-29T19:21:48.231Z,95848.56
2022-11-29T19:24:18.276Z,95854.94
2022-11-29T19:26:49.013Z,95847.19
2022-11-29T19:29:19.176Z,95843.44
2022-11-29T19:31:48.135Z,95848.31
2022-11-29T19:34:16.463Z,95822.69
2022-11-29T19:36:45.601Z,95846.22
2022-11-29T19:39:15.198Z,95846.78
2022-11-29T19:41:45.486Z,95850.28
2022-11-29T19:44:14.621Z,95850.97
2022-11-29T19:46:46.022Z,95859.81
2022-11-29T19:49:15.119Z,95855.28
2022-11-29T19:51:43.602Z,95844.38
2022-11-29T19:54:12.497Z,95860.16
2022-11-29T19:56:41.076Z,95855.63
2022-11-29T19:59:10.077Z,95864.94
2022-11-29T20:01:41.877Z,95849.75
2022-11-29T20:04:17.053Z,95866.47
2022-11-29T20:06:46.054Z,95867.28
2022-11-29T20:09:14.800Z,95862.75
2022-11-29T20:11:43.393Z,95867.28
2022-11-29T20:14:12.909Z,95854.53
2022-11-29T20:16:41.745Z,95868.31
2022-11-29T20:19:13.238Z,95872.63
2022-11-29T20:21:45.985Z,95792.28
2022-11-29T20:24:16.321Z,95874.56
2022-11-29T20:26:47.521Z,95881.00
2022-11-29T20:29:16.714Z,95782.31
2022-11-29T20:31:50.811Z,95881.00
2022-11-29T20:34:21.990Z,95877.72
2022-11-29T20:37:07.638Z,95884.94
2022-11-29T20:39:47.115Z,95883.06
2022-11-29T20:42:48.137Z,95885.75
2022-11-29T20:45:17.524Z,95884.16
2022-11-29T20:47:52.481Z,95850.03
2022-11-29T20:50:24.405Z,95896.22
2022-11-29T20:53:04.569Z,95798.44
2022-11-29T20:55:33.025Z,95849.44
2022-11-29T20:58:01.372Z,95821.28
2022-11-29T21:00:29.755Z,95858.72
2022-11-29T21:02:58.099Z,95886.34
2022-11-29T21:05:28.185Z,95845.81
2022-11-29T21:07:56.564Z,95893.91
2022-11-29T21:10:24.897Z,95853.97
2022-11-29T21:12:53.757Z,95813.19
2022-11-29T21:15:22.951Z,95888.53
2022-11-29T21:17:51.802Z,95890.72
2022-11-29T21:20:24.047Z,95887.56
2022-11-29T21:23:02.032Z,95887.09
2022-11-29T21:25:42.970Z,95891.16
2022-11-29T21:28:14.289Z,95893.59
2022-11-29T21:30:43.958Z,95901.63
2022-11-29T21:33:12.972Z,95896.25
2022-11-29T21:35:41.638Z,95899.50
2022-11-29T21:38:18.888Z,95905.44
2022-11-29T21:40:47.710Z,95836.28
2022-11-29T21:43:16.124Z,95907.63
2022-11-29T21:45:44.499Z,95902.50
2022-11-29T21:48:26.615Z,95907.63
2022-11-29T21:50:57.772Z,95891.31
2022-11-29T21:53:29.780Z,95817.75
2022-11-29T21:55:59.164Z,95907.63
2022-11-29T21:58:29.788Z,95907.38
2022-11-29T22:00:59.174Z,95908.22
2022-11-29T22:03:27.603Z,95912.25
2022-11-29T22:06:02.553Z,95909.84
2022-11-29T22:08:36.227Z,95912.75
2022-11-29T22:11:05.302Z,95910.59
2022-11-29T22:13:33.717Z,95911.28
2022-11-29T22:16:10.278Z,95911.34
2022-11-29T22:18:39.075Z,95859.88
2022-11-29T22:21:08.809Z,95912.41
2022-11-29T22:23:38.637Z,95877.34
2022-11-29T22:26:08.448Z,95903.47
2022-11-29T22:28:37.210Z,95907.53
2022-11-29T22:31:07.771Z,95895.34
2022-11-29T22:33:36.750Z,95900.16
2022-11-29T22:36:06.665Z,95924.75
2022-11-29T22:38:35.462Z,95939.16
2022-11-29T22:41:07.363Z,95932.19
2022-11-29T22:43:36.862Z,95916.63
2022-11-29T22:46:07.045Z,95915.00
2022-11-29T22:48:39.008Z,95909.31
2022-11-29T22:51:09.845Z,95918.72
2022-11-29T22:53:40.090Z,95917.66
2022-11-29T22:56:12.804Z,95908.16
2022-11-29T22:58:41.189Z,95923.03
2022-11-29T23:01:11.570Z,95917.44
2022-11-29T23:03:42.184Z,95912.88
2022-11-29T23:06:13.061Z,95914.44
2022-11-29T23:08:42.564Z,95919.19
2022-11-29T23:11:15.049Z,95917.09
2022-11-29T23:13:44.554Z,95899.25
2022-11-29T23:16:14.919Z,95927.69
2022-11-29T23:18:45.674Z,95928.75
2022-11-29T23:21:16.093Z,95895.63
2022-11-29T23:23:44.986Z,95918.41
2022-11-29T23:26:21.089Z,95880.72
2022-11-29T23:28:50.435Z,95916.75
2022-11-29T23:31:19.631Z,95915.13
2022-11-29T23:33:48.229Z,95853.75
2022-11-29T23:36:17.562Z,95912.22
2022-11-29T23:38:46.271Z,95917.59
2022-11-29T23:41:14.839Z,95887.91
2022-11-29T23:43:44.796Z,95913.53
2022-11-29T23:46:16.445Z,95937.59
2022-11-29T23:48:45.621Z,95875.34
2022-11-29T23:51:14.737Z,95858.94
2022-11-29T23:53:43.929Z,95904.59
2022-11-29T23:56:14.981Z,95902.97
2022-11-29T23:58:45.758Z,95904.59
